createdAt,value
2023-05-12T00:01:55.293Z,100869.22
2023-05-12T00:04:25.021Z,100871.34
2023-05-12T00:06:52.746Z,100872.34
2023-05-12T00:09:20.331Z,100874.34
2023-05-12T00:11:48.401Z,100876.16
2023-05-12T00:14:16.103Z,100876.31
2023-05-12T00:16:43.861Z,100867.59
2023-05-12T00:19:12.010Z,100874.78
2023-05-12T00:21:43.990Z,100872.25
2023-05-12T00:24:12.643Z,100880.44
2023-05-12T00:26:40.231Z,100887.59
2023-05-12T00:29:08.553Z,100883.56
2023-05-12T00:31:37.079Z,100881.88
2023-05-12T00:34:04.759Z,100879.19
2023-05-12T00:36:32.977Z,100887.38
2023-05-12T00:39:02.338Z,100879.53
2023-05-12T00:41:29.949Z,100894.72
2023-05-12T00:43:57.567Z,100893.88
2023-05-12T00:46:25.937Z,100894.84
2023-05-12T00:48:55.019Z,100894.19
2023-05-12T00:51:22.601Z,100896.00
2023-05-12T00:53:53.005Z,100897.84
2023-05-12T00:56:22.997Z,100889.16
2023-05-12T00:58:55.865Z,100893.78
2023-05-12T01:01:24.125Z,100889.44
2023-05-12T01:03:54.979Z,100892.25
2023-05-12T01:06:30.338Z,100891.44
2023-05-12T01:08:58.713Z,100891.56
2023-05-12T01:11:27.807Z,100888.88
2023-05-12T01:13:55.422Z,100885.38
2023-05-12T01:16:27.234Z,100890.03
2023-05-12T01:18:57.825Z,100884.00
2023-05-12T01:21:26.990Z,100884.97
2023-05-12T01:23:59.664Z,100885.97
2023-05-12T01:26:32.338Z,100884.97
2023-05-12T01:34:25.022Z,100898.66
2023-05-12T01:36:57.735Z,100891.63
2023-05-12T01:39:26.999Z,100884.63
2023-05-12T01:42:21.034Z,100896.13
2023-05-12T01:44:53.082Z,100891.63
2023-05-12T01:47:21.606Z,100896.13
2023-05-12T01:50:10.417Z,100895.31
2023-05-12T01:52:38.487Z,100891.91
2023-05-12T01:55:10.765Z,100894.59
2023-05-12T01:57:48.048Z,100896.44
2023-05-12T02:00:17.139Z,100894.75
2023-05-12T02:03:10.459Z,100898.56
2023-05-12T02:05:39.633Z,100911.94
2023-05-12T02:08:07.546Z,100908.56
2023-05-12T02:10:36.171Z,100904.16
2023-05-12T02:13:06.214Z,100911.50
2023-05-12T02:15:36.115Z,100909.50
2023-05-12T02:18:04.470Z,100900.09
2023-05-12T02:20:33.046Z,100906.44
2023-05-12T02:23:02.041Z,100904.59
2023-05-12T02:25:34.425Z,100902.94
2023-05-12T02:28:01.986Z,100904.91
2023-05-12T02:30:31.044Z,100913.94
2023-05-12T02:32:59.014Z,100910.41
2023-05-12T02:35:26.853Z,100913.38
2023-05-12T02:37:55.007Z,100912.53
2023-05-12T02:40:24.076Z,100903.84
2023-05-12T02:42:51.645Z,100913.81
2023-05-12T02:45:19.329Z,100912.97
2023-05-12T02:47:48.387Z,100912.28
2023-05-12T02:50:17.114Z,100910.75
2023-05-12T02:52:44.851Z,100910.91
2023-05-12T02:55:13.024Z,100911.06
2023-05-12T02:57:40.817Z,100907.69
2023-05-12T03:00:10.563Z,100899.69
2023-05-12T03:02:40.827Z,100914.84
2023-05-12T03:05:13.998Z,100907.81
2023-05-12T03:07:42.156Z,100908.81
2023-05-12T03:10:10.801Z,100899.28
2023-05-12T03:12:38.562Z,100915.16
2023-05-12T03:15:11.026Z,100919.94
2023-05-12T03:17:39.627Z,100908.56
2023-05-12T03:20:09.872Z,100906.88
2023-05-12T03:22:38.628Z,100911.38
2023-05-12T03:25:10.159Z,100914.06
2023-05-12T03:27:37.754Z,100914.34
2023-05-12T03:30:11.034Z,100914.50
2023-05-12T03:32:40.071Z,100917.59
2023-05-12T03:35:14.112Z,100912.41
2023-05-12T03:37:41.997Z,100919.72
2023-05-12T03:40:35.272Z,100922.25
2023-05-12T03:43:03.952Z,100922.41
2023-05-12T03:45:31.559Z,100927.84
2023-05-12T03:47:59.200Z,100927.03
2023-05-12T03:50:28.162Z,100927.03
2023-05-12T03:52:56.067Z,100930.69
2023-05-12T03:55:24.376Z,100924.50
2023-05-12T03:57:52.998Z,100931.66
2023-05-12T04:00:22.324Z,100933.66
2023-05-12T04:02:54.192Z,100938.13
2023-05-12T04:05:49.086Z,100943.47
2023-05-12T04:08:17.934Z,100942.78
2023-05-12T04:10:46.790Z,100951.78
2023-05-12T04:13:15.078Z,100949.94
2023-05-12T04:15:42.657Z,100952.63
2023-05-12T04:18:11.486Z,100952.75
2023-05-12T04:20:40.540Z,100953.59
2023-05-12T04:23:09.645Z,100955.44
2023-05-12T04:25:40.012Z,100960.78
2023-05-12T04:28:11.924Z,100960.78
2023-05-12T04:30:42.138Z,100966.94
2023-05-12T04:33:10.659Z,100973.28
2023-05-12T04:35:39.509Z,100967.94
2023-05-12T04:38:08.743Z,100976.06
2023-05-12T04:40:37.684Z,100984.78
2023-05-12T04:43:05.757Z,100983.13
2023-05-12T04:45:37.079Z,100986.47
2023-05-12T04:48:05.760Z,100997.00
2023-05-12T04:50:34.075Z,101001.34
2023-05-12T04:53:01.708Z,101003.91
2023-05-12T04:55:30.999Z,101010.91
2023-05-12T04:57:59.541Z,101004.59
2023-05-12T05:00:27.168Z,101008.09
2023-05-12T05:02:54.988Z,101014.13
2023-05-12T05:05:23.726Z,101018.34
2023-05-12T05:07:52.404Z,101025.38
2023-05-12T05:10:20.643Z,101024.53
2023-05-12T05:12:50.862Z,101030.69
2023-05-12T05:15:20.261Z,101037.56
2023-05-12T05:17:49.631Z,101037.44
2023-05-12T05:20:19.726Z,101039.13
2023-05-12T05:22:49.220Z,101045.00
2023-05-12T05:25:17.016Z,101048.56
2023-05-12T05:27:44.842Z,101053.75
2023-05-12T05:30:14.098Z,101057.25
2023-05-12T05:32:42.356Z,101050.75
2023-05-12T05:35:11.102Z,101052.44
2023-05-12T05:37:43.466Z,101066.38
2023-05-12T05:40:11.396Z,101059.91
2023-05-12T05:42:40.649Z,101062.13
2023-05-12T05:45:09.875Z,101066.63
2023-05-12T05:47:39.278Z,101066.34
2023-05-12T05:50:08.985Z,101067.03
2023-05-12T05:52:39.039Z,101070.28
2023-05-12T05:55:08.856Z,101070.97
2023-05-12T05:57:37.743Z,101077.72
2023-05-12T06:00:08.018Z,101073.91
2023-05-12T06:02:42.477Z,101076.72
2023-05-12T06:05:20.873Z,101085.44
2023-05-12T06:07:50.567Z,101086.16
2023-05-12T06:10:18.664Z,101084.31
2023-05-12T06:12:46.634Z,101095.00
2023-05-12T06:15:15.444Z,101093.28
2023-05-12T06:17:44.502Z,101094.16
2023-05-12T06:20:14.257Z,101099.19
2023-05-12T06:22:44.145Z,101103.31
2023-05-12T06:25:11.683Z,101105.66
2023-05-12T06:27:39.509Z,101108.75
2023-05-12T06:30:08.354Z,101103.97
2023-05-12T06:32:36.071Z,101101.72
2023-05-12T06:35:08.435Z,101102.09
2023-05-12T06:37:36.267Z,101105.31
2023-05-12T06:40:03.999Z,101102.22
2023-05-12T06:42:32.720Z,101105.59
2023-05-12T06:45:01.581Z,101113.16
2023-05-12T06:47:29.097Z,101110.06
2023-05-12T06:49:58.861Z,101107.91
2023-05-12T06:52:27.735Z,101110.84
2023-05-12T06:54:58.042Z,101115.75
2023-05-12T06:57:26.879Z,101117.72
2023-05-12T06:59:55.404Z,101119.78
2023-05-12T07:02:22.941Z,101114.81
2023-05-12T07:04:50.613Z,101121.41
2023-05-12T07:07:18.788Z,101127.16
2023-05-12T07:09:47.774Z,101129.53
2023-05-12T07:12:15.454Z,101129.94
2023-05-12T07:14:43.168Z,101127.50
2023-05-12T07:17:12.551Z,101134.09
2023-05-12T07:19:40.357Z,101128.97
2023-05-12T07:22:07.965Z,101129.66
2023-05-12T07:24:35.588Z,101130.19
2023-05-12T07:27:04.990Z,101135.09
2023-05-12T07:29:33.051Z,101138.03
2023-05-12T07:32:03.018Z,101141.94
2023-05-12T07:34:32.693Z,101141.47
2023-05-12T07:37:02.336Z,101136.81
2023-05-12T07:39:33.012Z,101141.69
2023-05-12T07:42:02.041Z,101144.75
2023-05-12T07:44:33.339Z,101149.66
2023-05-12T07:47:01.113Z,101145.81
2023-05-12T07:49:28.693Z,101140.84
2023-05-12T07:51:56.499Z,101146.91
2023-05-12T07:54:25.055Z,101148.44
2023-05-12T07:56:52.599Z,101148.13
2023-05-12T07:59:24.032Z,101151.50
2023-05-12T08:01:54.050Z,101144.97
2023-05-12T08:04:23.084Z,101147.34
2023-05-12T08:06:52.109Z,101148.03
2023-05-12T08:09:21.568Z,101146.88
2023-05-12T08:11:51.848Z,101145.72
2023-05-12T08:14:22.281Z,101149.41
2023-05-12T08:16:49.927Z,101142.88
2023-05-12T08:19:19.048Z,101149.47
2023-05-12T08:21:46.662Z,101149.00
2023-05-12T08:24:14.245Z,101154.91
2023-05-12T08:26:42.578Z,101150.88
2023-05-12T08:29:10.664Z,101157.63
2023-05-12T08:31:40.126Z,101162.69
2023-05-12T08:34:11.123Z,101167.03
2023-05-12T08:36:44.048Z,101161.84
2023-05-12T08:39:12.362Z,101164.03
2023-05-12T08:41:45.391Z,101162.91
2023-05-12T08:44:15.099Z,101171.25
2023-05-12T08:46:48.028Z,101168.56
2023-05-12T08:49:22.040Z,101169.09
2023-05-12T08:51:58.305Z,101173.28
2023-05-12T08:54:31.106Z,101175.69
2023-05-12T08:59:29.361Z,101176.38
2023-05-12T09:01:57.449Z,101183.00
2023-05-12T09:04:25.133Z,101172.63
2023-05-12T09:06:56.014Z,101173.00
2023-05-12T09:09:26.026Z,101181.59
2023-05-12T09:11:58.065Z,101176.88
2023-05-12T09:14:26.947Z,101178.25
2023-05-12T09:17:01.204Z,101181.31
2023-05-12T09:19:29.173Z,101177.81
2023-05-12T09:21:59.451Z,101171.97
2023-05-12T09:24:36.205Z,101173.19
2023-05-12T09:27:08.062Z,101178.72
2023-05-12T09:29:48.106Z,101179.94
2023-05-12T09:32:34.153Z,101181.81
2023-05-12T09:35:07.663Z,101169.56
2023-05-12T09:37:37.133Z,101167.91
2023-05-12T09:40:07.203Z,101167.25
2023-05-12T09:42:43.655Z,101167.44
2023-05-12T09:45:11.854Z,101169.13
2023-05-12T09:47:40.718Z,101167.19
2023-05-12T09:50:11.046Z,101165.16
2023-05-12T09:52:41.233Z,101161.47
2023-05-12T09:55:12.056Z,101166.53
2023-05-12T09:57:42.556Z,101170.88
2023-05-12T10:00:28.637Z,101162.47
2023-05-12T10:03:01.578Z,101161.13
2023-05-12T10:05:32.568Z,101165.34
2023-05-12T10:08:05.869Z,101164.97
2023-05-12T10:10:34.997Z,101170.50
2023-05-12T10:13:04.567Z,101164.25
2023-05-12T10:15:33.728Z,101168.31
2023-05-12T10:18:02.261Z,101167.44
2023-05-12T10:20:30.100Z,101157.13
2023-05-12T10:23:00.194Z,101153.59
2023-05-12T10:25:29.470Z,101151.03
2023-05-12T10:28:03.833Z,101143.03
2023-05-12T10:30:34.047Z,101141.44
2023-05-12T10:33:02.746Z,101149.91
2023-05-12T10:35:34.567Z,101147.41
2023-05-12T10:38:04.345Z,101145.63
2023-05-12T10:40:34.118Z,101154.97
2023-05-12T10:43:02.085Z,101145.94
2023-05-12T10:45:30.658Z,101149.44
2023-05-12T10:48:09.506Z,101153.34
2023-05-12T10:50:37.714Z,101147.69
2023-05-12T10:53:06.424Z,101144.06
2023-05-12T10:55:45.462Z,101140.94
2023-05-12T10:58:14.410Z,101141.03
2023-05-12T11:00:46.808Z,101140.94
2023-05-12T11:03:17.415Z,101140.38
2023-05-12T11:05:49.024Z,101148.56
2023-05-12T11:08:17.762Z,101140.66
2023-05-12T11:10:48.115Z,101139.06
2023-05-12T11:13:15.684Z,101131.16
2023-05-12T11:15:44.791Z,101139.84
2023-05-12T11:18:13.400Z,101134.03
2023-05-12T11:20:41.738Z,101136.47
2023-05-12T11:23:09.415Z,101131.34
2023-05-12T11:25:38.115Z,101139.03
2023-05-12T11:28:12.116Z,101132.25
2023-05-12T11:30:50.395Z,101129.69
2023-05-12T11:33:21.957Z,101127.53
2023-05-12T11:35:51.359Z,101127.59
2023-05-12T11:38:22.052Z,101125.84
2023-05-12T11:40:49.985Z,101124.63
2023-05-12T11:43:22.718Z,101120.50
2023-05-12T11:45:50.523Z,101117.94
2023-05-12T11:48:18.625Z,101114.91
2023-05-12T11:50:48.050Z,101115.41
2023-05-12T11:53:18.620Z,101116.94
2023-05-12T11:55:51.124Z,101122.41
2023-05-12T11:58:26.473Z,101118.53
2023-05-12T12:00:55.018Z,101120.66
2023-05-12T12:03:22.762Z,101126.44
2023-05-12T12:05:59.802Z,101116.84
2023-05-12T12:08:27.661Z,101115.63
2023-05-12T12:10:55.343Z,101120.84
2023-05-12T12:13:25.964Z,101125.66
2023-05-12T12:15:53.927Z,101126.72
2023-05-12T12:18:21.601Z,101114.72
2023-05-12T12:20:50.143Z,101122.69
2023-05-12T12:23:20.761Z,101115.44
2023-05-12T12:25:49.128Z,101122.13
2023-05-12T12:28:17.461Z,101115.88
2023-05-12T12:30:46.566Z,101124.81
2023-05-12T12:33:14.267Z,101126.44
2023-05-12T12:35:42.701Z,101117.84
2023-05-12T12:38:10.577Z,101116.59
2023-05-12T12:40:38.212Z,101124.66
2023-05-12T12:43:07.094Z,101117.94
2023-05-12T12:45:34.856Z,101118.44
2023-05-12T12:48:03.891Z,101117.34
2023-05-12T12:50:32.211Z,101119.78
2023-05-12T12:52:59.815Z,101115.41
2023-05-12T12:55:27.668Z,101117.28
2023-05-12T12:57:55.230Z,101117.41
2023-05-12T13:00:23.909Z,101127.59
2023-05-12T13:02:51.637Z,101117.34
2023-05-12T13:05:20.889Z,101128.16
2023-05-12T13:07:49.015Z,101125.66
2023-05-12T13:10:16.878Z,101125.72
2023-05-12T13:12:44.510Z,101130.34
2023-05-12T13:15:12.653Z,101131.06
2023-05-12T13:17:40.520Z,101133.81
2023-05-12T13:20:09.668Z,101135.34
2023-05-12T13:22:38.788Z,101131.84
2023-05-12T13:25:07.817Z,101140.63
2023-05-12T13:27:35.718Z,101125.84
2023-05-12T13:30:04.871Z,101123.16
2023-05-12T13:32:33.069Z,101126.31
2023-05-12T13:35:01.405Z,101125.06
2023-05-12T13:37:29.140Z,101124.72
2023-05-12T13:39:58.190Z,101122.84
2023-05-12T13:42:26.814Z,101122.00
2023-05-12T13:44:56.472Z,101119.03
2023-05-12T13:47:25.072Z,101114.03
2023-05-12T13:49:56.339Z,101120.34
2023-05-12T13:52:24.162Z,101122.56
2023-05-12T13:54:52.494Z,101115.88
2023-05-12T13:57:22.785Z,101115.03
2023-05-12T13:59:51.737Z,101121.94
2023-05-12T14:02:19.656Z,101119.81
2023-05-12T14:04:47.396Z,101110.59
2023-05-12T14:07:15.481Z,101115.19
2023-05-12T14:09:43.081Z,101113.06
2023-05-12T14:12:10.996Z,101117.69
2023-05-12T14:14:39.960Z,101112.38
2023-05-12T14:17:07.534Z,101111.28
2023-05-12T14:19:36.160Z,101120.31
2023-05-12T14:22:12.467Z,101114.56
2023-05-12T14:24:47.307Z,101120.88
2023-05-12T14:27:15.176Z,101115.31
2023-05-12T14:29:44.098Z,101120.50
2023-05-12T14:32:11.967Z,101127.81
2023-05-12T14:34:39.811Z,101139.66
2023-05-12T14:37:08.160Z,101146.72
2023-05-12T14:39:35.706Z,101147.91
2023-05-12T14:42:03.679Z,101146.47
2023-05-12T14:44:33.103Z,101149.78
2023-05-12T14:47:02.383Z,101150.09
2023-05-12T14:49:32.038Z,101151.53
2023-05-12T14:51:59.595Z,101151.75
2023-05-12T14:54:27.423Z,101158.63
2023-05-12T14:56:55.154Z,101155.22
2023-05-12T14:59:25.520Z,101159.94
2023-05-12T15:01:53.335Z,101159.22
2023-05-12T15:04:22.359Z,101160.25
2023-05-12T15:06:50.834Z,101160.25
2023-05-12T15:09:18.432Z,101161.91
2023-05-12T15:11:49.230Z,101160.25
2023-05-12T15:14:16.875Z,101156.91
2023-05-12T15:16:44.491Z,101158.31
2023-05-12T15:19:13.127Z,101163.69
2023-05-12T15:21:42.008Z,101162.16
2023-05-12T15:24:09.884Z,101160.03
2023-05-12T15:26:39.583Z,101163.31
2023-05-12T15:29:08.018Z,101159.16
2023-05-12T15:31:37.136Z,101152.88
2023-05-12T15:34:05.137Z,101153.75
2023-05-12T15:39:03.624Z,101157.91
2023-05-12T15:43:58.649Z,101155.41
2023-05-12T15:46:26.265Z,101147.66
2023-05-12T15:48:54.001Z,101148.97
2023-05-12T15:51:21.565Z,101144.84
2023-05-12T15:53:51.501Z,101147.97
2023-05-12T15:56:21.241Z,101141.72
2023-05-12T15:58:49.081Z,101148.13
2023-05-12T16:01:16.668Z,101142.06
2023-05-12T16:03:44.540Z,101144.59
2023-05-12T16:06:12.151Z,101137.06
2023-05-12T16:08:40.472Z,101144.34
2023-05-12T16:11:08.527Z,101144.34
2023-05-12T16:13:37.400Z,101143.50
2023-05-12T16:16:05.340Z,101144.34
2023-05-12T16:21:02.055Z,101148.97
2023-05-12T16:23:29.684Z,101147.88
2023-05-12T16:25:59.171Z,101148.25
2023-05-12T16:28:27.038Z,101144.91
2023-05-12T16:30:56.350Z,101149.47
2023-05-12T16:33:24.809Z,101153.59
2023-05-12T16:35:52.447Z,101142.13
2023-05-12T16:38:20.066Z,101151.09
2023-05-12T16:40:47.650Z,101151.28
2023-05-12T16:43:15.523Z,101148.94
2023-05-12T16:45:44.466Z,101148.69
2023-05-12T16:48:13.493Z,101146.59
2023-05-12T16:50:41.146Z,101146.75
2023-05-12T16:53:08.731Z,101147.34
2023-05-12T16:55:36.506Z,101143.16
2023-05-12T16:58:04.607Z,101144.38
2023-05-12T17:00:32.333Z,101144.97
2023-05-12T17:03:02.392Z,101150.91
2023-05-12T17:05:33.204Z,101156.50
2023-05-12T17:08:00.787Z,101156.88
2023-05-12T17:10:28.333Z,101169.09
2023-05-12T17:12:57.091Z,101162.19
2023-05-12T17:15:25.407Z,101169.88
2023-05-12T17:17:53.608Z,101163.16
2023-05-12T17:20:21.927Z,101164.53
2023-05-12T17:22:52.140Z,101167.84
2023-05-12T17:25:20.293Z,101169.03
2023-05-12T17:27:51.111Z,101167.72
2023-05-12T17:30:19.853Z,101173.53
2023-05-12T17:32:47.781Z,101173.44
2023-05-12T17:35:16.108Z,101173.16
2023-05-12T17:37:44.721Z,101180.78
2023-05-12T17:40:17.774Z,101174.94
2023-05-12T17:42:46.193Z,101186.47
2023-05-12T17:45:14.759Z,101183.31
2023-05-12T17:47:42.528Z,101182.84
2023-05-12T17:50:12.307Z,101182.19
2023-05-12T17:52:40.289Z,101187.13
2023-05-12T17:55:08.894Z,101188.13
2023-05-12T17:57:37.876Z,101191.41
2023-05-12T18:00:10.381Z,101193.63
2023-05-12T18:02:45.320Z,101191.28
2023-05-12T18:05:13.508Z,101195.81
2023-05-12T18:07:42.123Z,101191.81
2023-05-12T18:10:11.028Z,101196.72
2023-05-12T18:12:39.990Z,101201.47
2023-05-12T18:15:08.671Z,101199.13
2023-05-12T18:17:36.545Z,101202.22
2023-05-12T18:20:06.322Z,101203.41
2023-05-12T18:22:33.847Z,101211.03
2023-05-12T18:25:02.138Z,101203.50
2023-05-12T18:27:29.731Z,101207.56
2023-05-12T18:29:58.844Z,101203.56
2023-05-12T18:32:26.541Z,101207.44
2023-05-12T18:34:56.116Z,101199.91
2023-05-12T18:37:24.087Z,101207.88
2023-05-12T18:39:54.126Z,101206.72
2023-05-12T18:42:22.666Z,101201.03
2023-05-12T18:44:51.191Z,101210.72
2023-05-12T18:47:21.126Z,101210.56
2023-05-12T18:49:49.662Z,101204.22
2023-05-12T18:52:17.608Z,101217.56
2023-05-12T18:54:46.864Z,101211.38
2023-05-12T18:57:16.602Z,101216.59
2023-05-12T18:59:44.676Z,101221.38
2023-05-12T19:02:12.335Z,101222.25
2023-05-12T19:04:41.363Z,101233.06
2023-05-12T19:07:10.180Z,101229.41
2023-05-12T19:09:38.295Z,101248.28
2023-05-12T19:12:10.525Z,101240.03
2023-05-12T19:14:38.961Z,101248.31
2023-05-12T19:17:07.452Z,101250.19
2023-05-12T19:19:35.362Z,101262.00
2023-05-12T19:22:04.982Z,101257.59
2023-05-12T19:24:32.734Z,101255.09
2023-05-12T19:27:00.393Z,101254.25
2023-05-12T19:29:28.028Z,101259.78
2023-05-12T19:31:56.008Z,101267.69
2023-05-12T19:34:23.832Z,101261.66
2023-05-12T19:36:52.774Z,101266.34
2023-05-12T19:39:21.775Z,101267.31
2023-05-12T19:41:51.573Z,101271.00
2023-05-12T19:44:19.809Z,101281.06
2023-05-12T19:46:47.755Z,101280.34
2023-05-12T19:49:16.570Z,101275.09
2023-05-12T19:51:44.264Z,101280.44
2023-05-12T19:54:11.868Z,101278.56
2023-05-12T19:56:41.160Z,101282.38
2023-05-12T19:59:08.736Z,101280.50
2023-05-12T20:01:36.586Z,101286.50
2023-05-12T20:04:07.210Z,101280.28
2023-05-12T20:06:36.567Z,101281.22
2023-05-12T20:09:04.339Z,101282.69
2023-05-12T20:11:32.140Z,101286.31
2023-05-12T20:14:02.027Z,101290.63
2023-05-12T20:16:30.455Z,101292.44
2023-05-12T20:19:00.597Z,101301.09
2023-05-12T20:21:31.165Z,101300.16
2023-05-12T20:23:59.238Z,101300.94
2023-05-12T20:26:52.301Z,101309.88
2023-05-12T20:29:21.500Z,101297.25
2023-05-12T20:31:49.972Z,101299.56
2023-05-12T20:34:18.460Z,101304.69
2023-05-12T20:36:47.297Z,101296.41
2023-05-12T20:39:15.777Z,101304.22
2023-05-12T20:41:44.563Z,101312.03
2023-05-12T20:44:12.155Z,101312.81
2023-05-12T20:46:41.146Z,101317.91
2023-05-12T20:49:09.561Z,101315.81
2023-05-12T20:51:37.682Z,101322.50
2023-05-12T20:54:05.834Z,101318.72
2023-05-12T20:56:34.145Z,101317.50
2023-05-12T20:59:01.912Z,101310.88
2023-05-12T21:01:29.589Z,101313.00
2023-05-12T21:03:59.140Z,101317.97
2023-05-12T21:06:27.203Z,101324.63
2023-05-12T21:08:54.753Z,101318.88
2023-05-12T21:11:22.889Z,101318.59
2023-05-12T21:13:50.658Z,101323.53
2023-05-12T21:16:18.215Z,101322.13
2023-05-12T21:18:46.032Z,101329.59
2023-05-12T21:21:15.165Z,101328.34
2023-05-12T21:23:42.898Z,101327.94
2023-05-12T21:26:11.276Z,101332.75
2023-05-12T21:28:38.915Z,101331.34
2023-05-12T21:31:06.688Z,101331.91
2023-05-12T21:33:34.336Z,101337.56
2023-05-12T21:36:01.929Z,101336.16
2023-05-12T21:38:32.014Z,101334.91
2023-05-12T21:41:00.311Z,101336.31
2023-05-12T21:43:28.008Z,101340.25
2023-05-12T21:45:56.284Z,101337.19
2023-05-12T21:48:24.862Z,101331.94
2023-05-12T21:51:01.138Z,101335.06
2023-05-12T21:53:31.172Z,101340.69
2023-05-12T21:55:58.835Z,101334.78
2023-05-12T21:58:26.505Z,101341.41
2023-05-12T22:00:54.329Z,101340.00
2023-05-12T22:03:24.857Z,101349.28
2023-05-12T22:05:53.236Z,101342.38
2023-05-12T22:08:21.226Z,101346.19
2023-05-12T22:10:50.414Z,101350.97
2023-05-12T22:13:18.949Z,101346.75
2023-05-12T22:15:46.557Z,101346.88
2023-05-12T22:18:14.440Z,101347.88
2023-05-12T22:20:42.442Z,101351.69
2023-05-12T22:23:10.562Z,101353.63
2023-05-12T22:25:39.225Z,101355.44
2023-05-12T22:28:08.166Z,101353.91
2023-05-12T22:30:35.758Z,101361.09
2023-05-12T22:33:03.439Z,101354.19
2023-05-12T22:35:31.298Z,101357.84
2023-05-12T22:37:59.711Z,101359.97
2023-05-12T22:40:27.737Z,101346.59
2023-05-12T22:42:56.238Z,101367.97
2023-05-12T22:45:25.353Z,101364.44
2023-05-12T22:47:53.150Z,101365.31
2023-05-12T22:50:21.427Z,101362.75
2023-05-12T22:52:49.464Z,101361.19
2023-05-12T22:55:17.700Z,101364.00
2023-05-12T22:57:46.031Z,101362.28
2023-05-12T23:00:15.575Z,101365.25
2023-05-12T23:02:44.516Z,101363.56
2023-05-12T23:05:12.680Z,101362.81
2023-05-12T23:07:40.363Z,101357.78
2023-05-12T23:10:09.006Z,101357.09
2023-05-12T23:12:36.611Z,101356.34
2023-05-12T23:15:05.159Z,101361.00
2023-05-12T23:17:32.707Z,101353.25
2023-05-12T23:20:01.728Z,101357.88
2023-05-12T23:22:29.362Z,101358.03
2023-05-12T23:24:58.149Z,101354.78
2023-05-12T23:27:25.753Z,101355.06
2023-05-12T23:29:53.405Z,101360.66
2023-05-12T23:32:22.340Z,101363.47
2023-05-12T23:34:50.545Z,101358.38
2023-05-12T23:37:20.198Z,101355.16
2023-05-12T23:39:47.873Z,101350.91
2023-05-12T23:42:17.039Z,101348.53
2023-05-12T23:44:44.671Z,101349.53
2023-05-12T23:47:12.518Z,101344.44
2023-05-12T23:49:40.185Z,101344.59
2023-05-12T23:52:08.332Z,101351.84
2023-05-12T23:54:37.287Z,101352.00
2023-05-12T23:57:05.546Z,101348.50
2023-05-12T23:59:33.118Z,101345.97
